Time;durP1;ratioP1;P1;durP2;ratioP2;P2;SDS_P1;SDS_P2;PMS_P1;PMS_P2;Temp;Humidity;BMP_temperature;BMP_pressure;BME280_temperature;BME280_humidity;BME280_pressure;Samples;Min_cycle;Max_cycle;Signal;HPM_P1;HPM_P2
2020/11/04 00:00:56;;;;;;;0.1;0.1;;;;;;;;;;;;;
2020/11/04 00:03:21;;;;;;;0.1;0.1;;;;;;;;;;;;;
2020/11/04 00:05:46;;;;;;;0.8;0.2;;;;;;;;;;;;;
2020/11/04 00:08:11;;;;;;;2;0.3;;;;;;;;;;;;;
2020/11/04 00:10:36;;;;;;;0.2;0.1;;;;;;;;;;;;;
2020/11/04 00:13:01;;;;;;;0;0;;;;;;;;;;;;;
2020/11/04 00:15:27;;;;;;;0.1;0.1;;;;;;;;;;;;;
2020/11/04 00:17:52;;;;;;;0.1;0.1;;;;;;;;;;;;;
2020/11/04 00:20:17;;;;;;;0;0;;;;;;;;;;;;;
2020/11/04 00:22:43;;;;;;;0.2;0.2;;;;;;;;;;;;;
2020/11/04 00:25:12;;;;;;;0.1;0.1;;;;;;;;;;;;;
2020/11/04 00:27:37;;;;;;;0;0;;;;;;;;;;;;;
2020/11/04 00:30:02;;;;;;;1.7;0;;;;;;;;;;;;;
2020/11/04 00:32:27;;;;;;;0.1;0.1;;;;;;;;;;;;;
2020/11/04 00:34:52;;;;;;;0;0;;;;;;;;;;;;;
2020/11/04 00:37:17;;;;;;;0.1;0;;;;;;;;;;;;;
2020/11/04 00:39:42;;;;;;;0.2;0.1;;;;;;;;;;;;;
2020/11/04 00:42:08;;;;;;;0;0;;;;;;;;;;;;;
2020/11/04 00:44:34;;;;;;;0;0;;;;;;;;;;;;;
2020/11/04 00:46:59;;;;;;;0.1;0.1;;;;;;;;;;;;;
2020/11/04 00:49:26;;;;;;;0.1;0.1;;;;;;;;;;;;;
2020/11/04 00:51:51;;;;;;;0;0;;;;;;;;;;;;;
2020/11/04 00:54:16;;;;;;;0;0;;;;;;;;;;;;;
2020/11/04 00:56:41;;;;;;;0.5;0.2;;;;;;;;;;;;;
2020/11/04 00:59:09;;;;;;;0;0;;;;;;;;;;;;;
2020/11/04 01:01:34;;;;;;;0.1;0.1;;;;;;;;;;;;;
2020/11/04 01:03:59;;;;;;;0;0;;;;;;;;;;;;;
2020/11/04 01:06:25;;;;;;;0.1;0.1;;;;;;;;;;;;;
2020/11/04 01:08:50;;;;;;;0;0;;;;;;;;;;;;;
2020/11/04 01:11:15;;;;;;;0;0;;;;;;;;;;;;;
2020/11/04 01:13:41;;;;;;;0;0;;;;;;;;;;;;;
2020/11/04 01:16:06;;;;;;;0;0;;;;;;;;;;;;;
2020/11/04 01:18:31;;;;;;;0;0;;;;;;;;;;;;;
2020/11/04 01:20:56;;;;;;;0;0;;;;;;;;;;;;;
2020/11/04 01:23:22;;;;;;;0;0;;;;;;;;;;;;;
2020/11/04 01:25:47;;;;;;;0.1;0.1;;;;;;;;;;;;;
2020/11/04 01:28:12;;;;;;;0;0;;;;;;;;;;;;;
2020/11/04 01:30:41;;;;;;;0;0;;;;;;;;;;;;;
2020/11/04 01:33:08;;;;;;;0;0;;;;;;;;;;;;;
2020/11/04 01:35:33;;;;;;;0.1;0.1;;;;;;;;;;;;;
2020/11/04 01:37:59;;;;;;;0;0;;;;;;;;;;;;;
2020/11/04 01:40:24;;;;;;;0;0;;;;;;;;;;;;;
2020/11/04 01:42:50;;;;;;;0.7;0.3;;;;;;;;;;;;;
2020/11/04 01:45:15;;;;;;;0.1;0.1;;;;;;;;;;;;;
2020/11/04 01:47:44;;;;;;;0.1;0.1;;;;;;;;;;;;;
2020/11/04 01:50:09;;;;;;;0.1;0.1;;;;;;;;;;;;;
2020/11/04 01:52:34;;;;;;;0.1;0.1;;;;;;;;;;;;;
2020/11/04 01:54:59;;;;;;;0.1;0.1;;;;;;;;;;;;;
2020/11/04 01:57:24;;;;;;;0.2;0.1;;;;;;;;;;;;;
2020/11/04 01:59:49;;;;;;;0;0;;;;;;;;;;;;;
2020/11/04 02:02:17;;;;;;;0.8;0.1;;;;;;;;;;;;;
2020/11/04 02:04:43;;;;;;;0.6;0.3;;;;;;;;;;;;;
2020/11/04 02:07:07;;;;;;;0.1;0.1;;;;;;;;;;;;;
2020/11/04 02:09:33;;;;;;;0.1;0.1;;;;;;;;;;;;;
2020/11/04 02:11:58;;;;;;;0.2;0.2;;;;;;;;;;;;;
2020/11/04 02:14:23;;;;;;;0.1;0.1;;;;;;;;;;;;;
2020/11/04 02:16:52;;;;;;;0.1;0.1;;;;;;;;;;;;;
2020/11/04 02:19:17;;;;;;;0.3;0.2;;;;;;;;;;;;;
2020/11/04 02:21:42;;;;;;;0.1;0.1;;;;;;;;;;;;;
2020/11/04 02:24:07;;;;;;;0.2;0.1;;;;;;;;;;;;;
2020/11/04 02:26:33;;;;;;;0.5;0.2;;;;;;;;;;;;;
2020/11/04 02:28:58;;;;;;;0.2;0.2;;;;;;;;;;;;;
2020/11/04 02:31:23;;;;;;;0.4;0.2;;;;;;;;;;;;;
2020/11/04 02:33:48;;;;;;;0.1;0.1;;;;;;;;;;;;;
2020/11/04 02:36:15;;;;;;;0.1;0.1;;;;;;;;;;;;;
2020/11/04 02:38:41;;;;;;;0.2;0.1;;;;;;;;;;;;;
2020/11/04 02:41:06;;;;;;;0.4;0.2;;;;;;;;;;;;;
2020/11/04 02:43:31;;;;;;;0.5;0.2;;;;;;;;;;;;;
2020/11/04 02:45:59;;;;;;;0.4;0.2;;;;;;;;;;;;;
2020/11/04 02:48:24;;;;;;;0.3;0.1;;;;;;;;;;;;;
2020/11/04 02:50:49;;;;;;;0.4;0.2;;;;;;;;;;;;;
2020/11/04 02:53:14;;;;;;;0.7;0.3;;;;;;;;;;;;;
2020/11/04 02:55:40;;;;;;;0.6;0.4;;;;;;;;;;;;;
2020/11/04 02:58:05;;;;;;;0.1;0.1;;;;;;;;;;;;;
2020/11/04 03:00:32;;;;;;;0.2;0.1;;;;;;;;;;;;;
2020/11/04 03:02:57;;;;;;;0.1;0.1;;;;;;;;;;;;;
2020/11/04 03:05:23;;;;;;;0.2;0.2;;;;;;;;;;;;;
2020/11/04 03:07:47;;;;;;;0.2;0.2;;;;;;;;;;;;;
2020/11/04 03:10:14;;;;;;;0;0;;;;;;;;;;;;;
2020/11/04 03:12:39;;;;;;;0.2;0.2;;;;;;;;;;;;;
2020/11/04 03:15:05;;;;;;;0.2;0.2;;;;;;;;;;;;;
2020/11/04 03:17:30;;;;;;;1.7;0.5;;;;;;;;;;;;;
2020/11/04 03:19:56;;;;;;;0.6;0.3;;;;;;;;;;;;;
2020/11/04 03:22:21;;;;;;;0.4;0.1;;;;;;;;;;;;;
2020/11/04 03:24:47;;;;;;;1.6;0.2;;;;;;;;;;;;;
2020/11/04 03:27:12;;;;;;;0.1;0.1;;;;;;;;;;;;;
2020/11/04 03:29:37;;;;;;;0.3;0.2;;;;;;;;;;;;;
2020/11/04 03:32:02;;;;;;;0.2;0.1;;;;;;;;;;;;;
2020/11/04 03:34:29;;;;;;;0.2;0.2;;;;;;;;;;;;;
2020/11/04 03:36:54;;;;;;;0.1;0.1;;;;;;;;;;;;;
2020/11/04 03:39:20;;;;;;;0.2;0.2;;;;;;;;;;;;;
2020/11/04 03:41:47;;;;;;;0.6;0.2;;;;;;;;;;;;;
2020/11/04 03:44:11;;;;;;;0.7;0.3;;;;;;;;;;;;;
2020/11/04 03:46:36;;;;;;;0.3;0.3;;;;;;;;;;;;;
2020/11/04 03:49:03;;;;;;;2;0.3;;;;;;;;;;;;;
2020/11/04 03:51:28;;;;;;;0.5;0.4;;;;;;;;;;;;;
2020/11/04 03:53:54;;;;;;;1.6;0.3;;;;;;;;;;;;;
2020/11/04 03:56:19;;;;;;;0.2;0.2;;;;;;;;;;;;;
2020/11/04 03:58:44;;;;;;;0.3;0.3;;;;;;;;;;;;;
2020/11/04 04:02:30;;;;;;;0.1;0.1;;;;;;;8.24;87.98242;947.1902;;;;
2020/11/04 04:04:55;;;;;;;0.5;0.4;;;;;;;8.18;87.48145;947.2744;;;;
2020/11/04 04:07:22;;;;;;;0.1;0.1;;;;;;;8.26;87.11328;947.3258;;;;
2020/11/04 04:09:47;;;;;;;0.5;0.3;;;;;;;8.23;86.87891;947.2892;;;;
2020/11/04 04:12:15;;;;;;;2.1;0.4;;;;;;;8.27;86.89746;947.2498;;;;
2020/11/04 04:14:40;;;;;;;0.1;0.1;;;;;;;8.1;87.22852;947.275;;;;
2020/11/04 04:17:09;;;;;;;3.4;0.3;;;;;;;8.17;87.28711;947.3367;;;;
2020/11/04 04:19:34;;;;;;;0.3;0.2;;;;;;;8.04;87.125;947.2644;;;;
2020/11/04 04:22:02;;;;;;;0.1;0.1;;;;;;;8.08;87.1543;947.2654;;;;
2020/11/04 04:24:27;;;;;;;0.5;0.3;;;;;;;8.15;86.87402;947.279;;;;
2020/11/04 04:26:54;;;;;;;0.3;0.2;;;;;;;8.23;86.88086;947.2742;;;;
2020/11/04 04:29:19;;;;;;;0.2;0.2;;;;;;;8.35;86.17773;947.2188;;;;
2020/11/04 04:31:45;;;;;;;0.6;0.3;;;;;;;8.25;86.07617;947.1803;;;;
2020/11/04 04:34:14;;;;;;;0.3;0.3;;;;;;;8.25;86.14453;947.127;;;;
2020/11/04 04:36:39;;;;;;;0.2;0.2;;;;;;;8.32;86.08008;947.123;;;;
2020/11/04 04:39:06;;;;;;;0.4;0.2;;;;;;;8.09;86.32813;947.2827;;;;
2020/11/04 04:41:32;;;;;;;2.4;0.2;;;;;;;8.23;86.31152;947.2748;;;;
2020/11/04 04:43:57;;;;;;;0.2;0.2;;;;;;;8.34;86.13965;947.2383;;;;
2020/11/04 04:46:27;;;;;;;0.2;0.2;;;;;;;8.41;85.67773;947.2514;;;;
2020/11/04 04:48:52;;;;;;;0.9;0.3;;;;;;;8.37;85.60059;947.2104;;;;
2020/11/04 04:51:17;;;;;;;0.5;0.4;;;;;;;8.29;85.37988;947.225;;;;
2020/11/04 04:53:46;;;;;;;0.2;0.2;;;;;;;8.4;85.90234;947.2536;;;;
2020/11/04 04:56:11;;;;;;;0.3;0.3;;;;;;;8.49;85.05762;947.1797;;;;
2020/11/04 04:58:36;;;;;;;0.5;0.3;;;;;;;8.56;85.25195;947.2215;;;;
2020/11/04 05:01:02;;;;;;;0.2;0.2;;;;;;;8.61;84.7168;947.2795;;;;
2020/11/04 05:03:27;;;;;;;4.3;0.4;;;;;;;8.52;84.59668;947.2475;;;;
2020/11/04 05:05:52;;;;;;;0.2;0.2;;;;;;;8.58;84.83594;947.2636;;;;
2020/11/04 05:08:17;;;;;;;0.4;0.2;;;;;;;8.57;84.52539;947.2456;;;;
2020/11/04 05:10:43;;;;;;;0.4;0.2;;;;;;;8.47;84.62012;947.2623;;;;
2020/11/04 05:13:09;;;;;;;0.2;0.2;;;;;;;8.47;84.73535;947.2856;;;;
2020/11/04 05:15:35;;;;;;;0.6;0.3;;;;;;;8.47;85.0293;947.2927;;;;
2020/11/04 05:18:00;;;;;;;0.2;0.2;;;;;;;8.62;84.65039;947.2675;;;;
2020/11/04 05:20:25;;;;;;;0.9;0.4;;;;;;;8.53;84.89355;947.3597;;;;
2020/11/04 05:22:52;;;;;;;0.1;0.1;;;;;;;8.68;84.45605;947.4171;;;;
2020/11/04 05:25:16;;;;;;;0.4;0.3;;;;;;;8.78;84.06641;947.3723;;;;
2020/11/04 05:27:41;;;;;;;0.6;0.5;;;;;;;8.82;83.44043;947.3035;;;;
2020/11/04 05:30:06;;;;;;;0.6;0.3;;;;;;;8.63;84.66309;947.3988;;;;
2020/11/04 05:32:36;;;;;;;1.5;0.6;;;;;;;8.75;83.93555;947.377;;;;
2020/11/04 05:35:02;;;;;;;0.3;0.2;;;;;;;;;;;;;
2020/11/04 05:37:27;;;;;;;1.4;0.3;;;;;;;;;;;;;
2020/11/04 05:39:52;;;;;;;1;0.1;;;;;;;;;;;;;
2020/11/04 05:42:17;;;;;;;0.3;0.2;;;;;;;;;;;;;
2020/11/04 05:44:42;;;;;;;0.4;0.3;;;;;;;;;;;;;
2020/11/04 05:47:08;;;;;;;0.4;0.2;;;;;;;;;;;;;
2020/11/04 05:49:33;;;;;;;0.4;0.4;;;;;;;;;;;;;
2020/11/04 05:51:58;;;;;;;0.7;0.4;;;;;;;;;;;;;
2020/11/04 05:54:23;;;;;;;0.5;0.3;;;;;;;;;;;;;
2020/11/04 05:56:48;;;;;;;0.3;0.3;;;;;;;;;;;;;
2020/11/04 05:59:14;;;;;;;1.2;0.4;;;;;;;;;;;;;
2020/11/04 06:01:39;;;;;;;0.5;0.5;;;;;;;;;;;;;
2020/11/04 06:04:07;;;;;;;0.6;0.5;;;;;;;;;;;;;
2020/11/04 06:06:32;;;;;;;0.5;0.4;;;;;;;;;;;;;
2020/11/04 06:08:57;;;;;;;0.6;0.5;;;;;;;;;;;;;
2020/11/04 06:11:22;;;;;;;0.4;0.4;;;;;;;;;;;;;
2020/11/04 06:13:47;;;;;;;0.4;0.4;;;;;;;;;;;;;
2020/11/04 06:16:12;;;;;;;1;0.7;;;;;;;;;;;;;
2020/11/04 06:18:38;;;;;;;0.4;0.4;;;;;;;;;;;;;
2020/11/04 06:21:03;;;;;;;0.3;0.3;;;;;;;;;;;;;
2020/11/04 06:23:28;;;;;;;1.9;0.5;;;;;;;;;;;;;
2020/11/04 06:25:54;;;;;;;1.2;0.5;;;;;;;;;;;;;
2020/11/04 06:28:19;;;;;;;0.4;0.3;;;;;;;;;;;;;
2020/11/04 06:30:44;;;;;;;0.6;0.5;;;;;;;;;;;;;
2020/11/04 06:33:09;;;;;;;0.5;0.4;;;;;;;;;;;;;
2020/11/04 06:35:35;;;;;;;1;0.7;;;;;;;;;;;;;
2020/11/04 06:37:59;;;;;;;0.4;0.4;;;;;;;;;;;;;
2020/11/04 06:40:24;;;;;;;0.8;0.5;;;;;;;;;;;;;
2020/11/04 06:42:49;;;;;;;0.5;0.4;;;;;;;;;;;;;
2020/11/04 06:45:17;;;;;;;0.3;0.3;;;;;;;;;;;;;
2020/11/04 06:47:42;;;;;;;0.9;0.4;;;;;;;;;;;;;
2020/11/04 06:50:07;;;;;;;0.3;0.3;;;;;;;;;;;;;
2020/11/04 06:52:32;;;;;;;1.1;0.6;;;;;;;;;;;;;
2020/11/04 06:54:58;;;;;;;1.6;0.5;;;;;;;;;;;;;
2020/11/04 06:57:23;;;;;;;1.1;0.7;;;;;;;;;;;;;
2020/11/04 06:59:49;;;;;;;1.6;0.5;;;;;;;;;;;;;
2020/11/04 07:02:14;;;;;;;2.1;0.7;;;;;;;;;;;;;
2020/11/04 07:04:39;;;;;;;0.9;0.7;;;;;;;;;;;;;
2020/11/04 07:07:04;;;;;;;1;0.7;;;;;;;;;;;;;
2020/11/04 07:09:29;;;;;;;0.6;0.4;;;;;;;;;;;;;
2020/11/04 07:11:54;;;;;;;0.7;0.6;;;;;;;;;;;;;
2020/11/04 07:14:20;;;;;;;0.5;0.5;;;;;;;;;;;;;
2020/11/04 07:16:45;;;;;;;0.4;0.4;;;;;;;;;;;;;
2020/11/04 07:19:12;;;;;;;2;0.5;;;;;;;;;;;;;
2020/11/04 07:21:37;;;;;;;0.6;0.6;;;;;;;;;;;;;
2020/11/04 07:24:03;;;;;;;0.7;0.5;;;;;;;;;;;;;
2020/11/04 07:26:28;;;;;;;1.2;0.8;;;;;;;;;;;;;
2020/11/04 07:28:53;;;;;;;1.7;1;;;;;;;;;;;;;
2020/11/04 07:31:18;;;;;;;1.3;1;;;;;;;;;;;;;
2020/11/04 07:33:43;;;;;;;3.6;0.6;;;;;;;;;;;;;
2020/11/04 07:36:11;;;;;;;0.8;0.7;;;;;;;;;;;;;
2020/11/04 07:38:34;;;;;;;1.2;0.8;;;;;;;;;;;;;
2020/11/04 07:40:59;;;;;;;5;2.6;;;;;;;;;;;;;
2020/11/04 07:43:24;;;;;;;5.4;2.8;;;;;;;;;;;;;
2020/11/04 07:45:51;;;;;;;2.1;1.6;;;;;;;;;;;;;
2020/11/04 07:48:15;;;;;;;2.1;1.3;;;;;;;;;;;;;
2020/11/04 07:50:42;;;;;;;2.3;1;;;;;;;;;;;;;
2020/11/04 07:53:07;;;;;;;1;0.8;;;;;;;;;;;;;
2020/11/04 07:55:33;;;;;;;0.5;0.4;;;;;;;;;;;;;
2020/11/04 07:57:58;;;;;;;0.8;0.6;;;;;;;;;;;;;
2020/11/04 08:00:25;;;;;;;0.9;0.7;;;;;;;;;;;;;
2020/11/04 08:02:50;;;;;;;1.2;0.5;;;;;;;;;;;;;
2020/11/04 08:05:15;;;;;;;4.6;0.8;;;;;;;;;;;;;
2020/11/04 08:07:41;;;;;;;1.2;0.6;;;;;;;;;;;;;
2020/11/04 08:10:07;;;;;;;1.5;0.9;;;;;;;;;;;;;
2020/11/04 08:12:32;;;;;;;1.1;0.7;;;;;;;;;;;;;
2020/11/04 08:14:57;;;;;;;0.4;0.4;;;;;;;;;;;;;
2020/11/04 08:17:23;;;;;;;0.8;0.6;;;;;;;;;;;;;
2020/11/04 08:19:49;;;;;;;0.7;0.6;;;;;;;;;;;;;
2020/11/04 08:22:14;;;;;;;1.2;1;;;;;;;;;;;;;
2020/11/04 08:24:39;;;;;;;4.2;0.8;;;;;;;;;;;;;
2020/11/04 08:27:04;;;;;;;2.4;0.7;;;;;;;;;;;;;
2020/11/04 08:29:30;;;;;;;0.8;0.6;;;;;;;;;;;;;
2020/11/04 08:31:55;;;;;;;2.4;0.6;;;;;;;;;;;;;
2020/11/04 08:34:20;;;;;;;0.7;0.5;;;;;;;;;;;;;
2020/11/04 08:36:45;;;;;;;1;0.8;;;;;;;;;;;;;
2020/11/04 08:39:10;;;;;;;0.6;0.6;;;;;;;;;;;;;
2020/11/04 08:41:35;;;;;;;2.8;0.8;;;;;;;;;;;;;
2020/11/04 08:44:01;;;;;;;1.9;1;;;;;;;;;;;;;
2020/11/04 08:46:26;;;;;;;1.6;1;;;;;;;;;;;;;
2020/11/04 08:48:51;;;;;;;0.9;0.8;;;;;;;;;;;;;
2020/11/04 08:51:16;;;;;;;0.8;0.7;;;;;;;;;;;;;
2020/11/04 08:53:41;;;;;;;1.2;0.5;;;;;;;;;;;;;
2020/11/04 08:56:06;;;;;;;0.5;0.5;;;;;;;;;;;;;
2020/11/04 08:58:32;;;;;;;0.6;0.4;;;;;;;;;;;;;
2020/11/04 09:00:57;;;;;;;1;0.8;;;;;;;;;;;;;
2020/11/04 09:03:23;;;;;;;0.4;0.4;;;;;;;;;;;;;
2020/11/04 09:05:48;;;;;;;0.6;0.5;;;;;;;;;;;;;
2020/11/04 09:08:14;;;;;;;0.6;0.6;;;;;;;;;;;;;
2020/11/04 09:10:39;;;;;;;0.4;0.4;;;;;;;;;;;;;
2020/11/04 09:13:06;;;;;;;4.6;0.8;;;;;;;;;;;;;
2020/11/04 09:15:31;;;;;;;1.9;0.8;;;;;;;;;;;;;
2020/11/04 09:17:57;;;;;;;2;0.9;;;;;;;;;;;;;
2020/11/04 09:20:22;;;;;;;26.7;5.7;;;;;;;;;;;;;
2020/11/04 09:22:48;;;;;;;32.4;9.4;;;;;;;;;;;;;
2020/11/04 09:25:13;;;;;;;6.4;2.9;;;;;;;;;;;;;
2020/11/04 09:27:39;;;;;;;8.1;3.6;;;;;;;;;;;;;
2020/11/04 09:30:04;;;;;;;4.9;1.9;;;;;;;;;;;;;
2020/11/04 09:32:31;;;;;;;0.9;0.8;;;;;;;;;;;;;
2020/11/04 09:34:56;;;;;;;5.3;1.8;;;;;;;;;;;;;
2020/11/04 09:37:23;;;;;;;5.6;2.2;;;;;;;;;;;;;
2020/11/04 09:39:48;;;;;;;1.5;0.9;;;;;;;;;;;;;
2020/11/04 09:42:14;;;;;;;2.1;1.5;;;;;;;;;;;;;
2020/11/04 09:44:39;;;;;;;2.1;1.4;;;;;;;;;;;;;
2020/11/04 09:47:05;;;;;;;3;1.1;;;;;;;;;;;;;
2020/11/04 09:49:30;;;;;;;3.3;1.5;;;;;;;;;;;;;
2020/11/04 09:51:55;;;;;;;0.7;0.5;;;;;;;;;;;;;
2020/11/04 09:54:20;;;;;;;4.5;0.8;;;;;;;;;;;;;
2020/11/04 09:56:45;;;;;;;4.3;1.1;;;;;;;;;;;;;
2020/11/04 09:59:10;;;;;;;0.9;0.5;;;;;;;;;;;;;
2020/11/04 10:01:36;;;;;;;5.8;0.6;;;;;;;;;;;;;
2020/11/04 10:04:01;;;;;;;1.2;0.5;;;;;;;;;;;;;
2020/11/04 10:06:26;;;;;;;0.6;0.3;;;;;;;;;;;;;
2020/11/04 10:08:52;;;;;;;1.1;0.4;;;;;;;;;;;;;
2020/11/04 10:11:17;;;;;;;0.4;0.2;;;;;;;;;;;;;
2020/11/04 10:13:43;;;;;;;0.2;0.2;;;;;;;;;;;;;
2020/11/04 10:16:09;;;;;;;0.9;0.5;;;;;;;;;;;;;
2020/11/04 10:18:35;;;;;;;0.5;0.5;;;;;;;;;;;;;
2020/11/04 10:21:00;;;;;;;0.6;0.3;;;;;;;;;;;;;
2020/11/04 10:23:27;;;;;;;0.2;0.2;;;;;;;;;;;;;
2020/11/04 10:25:51;;;;;;;0.4;0.2;;;;;;;;;;;;;
2020/11/04 10:28:17;;;;;;;0.3;0.2;;;;;;;;;;;;;
2020/11/04 10:30:42;;;;;;;0.8;0.3;;;;;;;;;;;;;
2020/11/04 10:33:09;;;;;;;0.9;0.3;;;;;;;;;;;;;
2020/11/04 10:35:34;;;;;;;0.7;0.4;;;;;;;;;;;;;
2020/11/04 10:38:00;;;;;;;0.4;0.2;;;;;;;;;;;;;
2020/11/04 10:40:25;;;;;;;0.9;0.6;;;;;;;;;;;;;
2020/11/04 10:42:52;;;;;;;0.4;0.4;;;;;;;;;;;;;
2020/11/04 10:45:17;;;;;;;0.9;0.3;;;;;;;;;;;;;
2020/11/04 10:47:43;;;;;;;0.8;0.3;;;;;;;;;;;;;
2020/11/04 10:50:08;;;;;;;0.8;0.4;;;;;;;;;;;;;
2020/11/04 10:52:33;;;;;;;0.6;0.4;;;;;;;;;;;;;
2020/11/04 10:54:59;;;;;;;0.6;0.6;;;;;;;;;;;;;
2020/11/04 10:57:25;;;;;;;0.6;0.4;;;;;;;;;;;;;
2020/11/04 10:59:50;;;;;;;1.7;0.4;;;;;;;;;;;;;
2020/11/04 11:02:17;;;;;;;0.3;0.3;;;;;;;;;;;;;
2020/11/04 11:04:42;;;;;;;0.4;0.2;;;;;;;;;;;;;
2020/11/04 11:07:07;;;;;;;1.6;0.6;;;;;;;;;;;;;
2020/11/04 11:09:42;;;;;;;1;0.8;;;;;;;;;;;;;
2020/11/04 11:12:00;;;;;;;0.2;0.2;;;;;;;;;;;;;
2020/11/04 11:14:25;;;;;;;4.2;0.5;;;;;;;;;;;;;
2020/11/04 11:16:52;;;;;;;0.9;0.4;;;;;;;;;;;;;
2020/11/04 11:19:17;;;;;;;0.7;0.6;;;;;;;;;;;;;
2020/11/04 11:21:42;;;;;;;0.5;0.3;;;;;;;;;;;;;
2020/11/04 11:24:07;;;;;;;1.3;0.6;;;;;;;;;;;;;
2020/11/04 11:26:32;;;;;;;0.4;0.4;;;;;;;;;;;;;
2020/11/04 11:28:58;;;;;;;0.2;0.2;;;;;;;;;;;;;
2020/11/04 11:31:23;;;;;;;0.4;0.4;;;;;;;;;;;;;
2020/11/04 11:33:49;;;;;;;0.4;0.4;;;;;;;;;;;;;
2020/11/04 11:36:14;;;;;;;0.7;0.5;;;;;;;;;;;;;
2020/11/04 11:38:41;;;;;;;0.6;0.5;;;;;;;;;;;;;
2020/11/04 11:41:06;;;;;;;0.6;0.2;;;;;;;;;;;;;
2020/11/04 11:43:32;;;;;;;0.3;0.3;;;;;;;;;;;;;
2020/11/04 11:45:56;;;;;;;1.2;0.7;;;;;;;;;;;;;
2020/11/04 11:48:23;;;;;;;1.6;0.6;;;;;;;;;;;;;
2020/11/04 11:50:48;;;;;;;1.2;0.6;;;;;;;;;;;;;
2020/11/04 11:53:13;;;;;;;1.8;0.7;;;;;;;;;;;;;
2020/11/04 11:55:39;;;;;;;0.5;0.5;;;;;;;;;;;;;
2020/11/04 11:58:04;;;;;;;1.2;0.7;;;;;;;;;;;;;
2020/11/04 12:00:29;;;;;;;1.5;0.6;;;;;;;;;;;;;
2020/11/04 12:02:54;;;;;;;0.5;0.4;;;;;;;;;;;;;
2020/11/04 12:05:19;;;;;;;1;0.5;;;;;;;;;;;;;
2020/11/04 12:07:44;;;;;;;2.3;0.7;;;;;;;;;;;;;
2020/11/04 12:10:12;;;;;;;0.8;0.7;;;;;;;;;;;;;
2020/11/04 12:12:37;;;;;;;1;0.5;;;;;;;;;;;;;
2020/11/04 12:15:02;;;;;;;0.9;0.5;;;;;;;;;;;;;
2020/11/04 12:17:27;;;;;;;0.6;0.6;;;;;;;;;;;;;
2020/11/04 12:19:52;;;;;;;1.8;0.9;;;;;;;;;;;;;
2020/11/04 12:22:17;;;;;;;1.2;0.8;;;;;;;;;;;;;
2020/11/04 12:24:43;;;;;;;0.9;0.5;;;;;;;;;;;;;
2020/11/04 12:27:08;;;;;;;2.9;0.6;;;;;;;;;;;;;
2020/11/04 12:29:34;;;;;;;1.8;0.9;;;;;;;;;;;;;
2020/11/04 12:31:59;;;;;;;0.6;0.5;;;;;;;;;;;;;
2020/11/04 12:34:25;;;;;;;0.4;0.4;;;;;;;;;;;;;
2020/11/04 12:36:50;;;;;;;1.6;0.9;;;;;;;;;;;;;
2020/11/04 12:39:17;;;;;;;0.6;0.5;;;;;;;;;;;;;
2020/11/04 12:41:42;;;;;;;1.1;0.7;;;;;;;;;;;;;
2020/11/04 12:44:07;;;;;;;3;1;;;;;;;;;;;;;
2020/11/04 12:46:32;;;;;;;2.6;0.7;;;;;;;;;;;;;
2020/11/04 12:48:57;;;;;;;0.5;0.5;;;;;;;;;;;;;
2020/11/04 12:51:23;;;;;;;1.9;0.8;;;;;;;;;;;;;
2020/11/04 12:53:48;;;;;;;1;0.6;;;;;;;;;;;;;
2020/11/04 12:56:13;;;;;;;1.5;0.5;;;;;;;;;;;;;
2020/11/04 12:58:38;;;;;;;2.2;0.7;;;;;;;;;;;;;
2020/11/04 13:01:04;;;;;;;0.8;0.4;;;;;;;;;;;;;
2020/11/04 13:03:29;;;;;;;0.9;0.5;;;;;;;;;;;;;
2020/11/04 13:05:56;;;;;;;0.8;0.6;;;;;;;;;;;;;
2020/11/04 13:08:21;;;;;;;0.7;0.6;;;;;;;;;;;;;
2020/11/04 13:10:48;;;;;;;0.7;0.5;;;;;;;;;;;;;
2020/11/04 13:13:14;;;;;;;2.4;0.7;;;;;;;;;;;;;
2020/11/04 13:15:39;;;;;;;3.1;0.7;;;;;;;;;;;;;
2020/11/04 13:18:04;;;;;;;0.8;0.6;;;;;;;;;;;;;
2020/11/04 13:20:30;;;;;;;0.6;0.5;;;;;;;;;;;;;
2020/11/04 13:22:54;;;;;;;1;0.4;;;;;;;;;;;;;
2020/11/04 13:25:20;;;;;;;1.4;0.6;;;;;;;;;;;;;
2020/11/04 13:27:45;;;;;;;0.5;0.5;;;;;;;;;;;;;
2020/11/04 13:30:13;;;;;;;2.5;0.8;;;;;;;;;;;;;
2020/11/04 13:32:39;;;;;;;3.8;0.6;;;;;;;;;;;;;
2020/11/04 13:35:04;;;;;;;3;0.6;;;;;;;;;;;;;
2020/11/04 13:37:29;;;;;;;0.7;0.6;;;;;;;;;;;;;
2020/11/04 13:39:55;;;;;;;0.4;0.4;;;;;;;;;;;;;
2020/11/04 13:42:20;;;;;;;1.9;0.6;;;;;;;;;;;;;
2020/11/04 13:44:45;;;;;;;2.4;0.7;;;;;;;;;;;;;
2020/11/04 13:47:10;;;;;;;1;0.7;;;;;;;;;;;;;
2020/11/04 13:49:36;;;;;;;1.6;0.5;;;;;;;;;;;;;
2020/11/04 13:52:01;;;;;;;1.3;0.6;;;;;;;;;;;;;
2020/11/04 13:54:28;;;;;;;0.7;0.6;;;;;;;;;;;;;
2020/11/04 13:56:53;;;;;;;2;1.3;;;;;;;;;;;;;
2020/11/04 13:59:19;;;;;;;0.6;0.5;;;;;;;;;;;;;
2020/11/04 14:01:44;;;;;;;2.4;0.9;;;;;;;;;;;;;
2020/11/04 14:04:10;;;;;;;0.8;0.6;;;;;;;;;;;;;
2020/11/04 14:06:35;;;;;;;1;0.7;;;;;;;;;;;;;
2020/11/04 14:09:01;;;;;;;1.4;0.8;;;;;;;;;;;;;
2020/11/04 14:11:26;;;;;;;1.2;0.7;;;;;;;;;;;;;
2020/11/04 14:13:52;;;;;;;0.9;0.6;;;;;;;;;;;;;
2020/11/04 14:16:17;;;;;;;10.1;0.9;;;;;;;;;;;;;
2020/11/04 14:18:44;;;;;;;1.5;0.9;;;;;;;;;;;;;
2020/11/04 14:21:09;;;;;;;3.4;0.9;;;;;;;;;;;;;
2020/11/04 14:23:35;;;;;;;1.5;0.8;;;;;;;;;;;;;
2020/11/04 14:26:01;;;;;;;1.3;0.7;;;;;;;;;;;;;
2020/11/04 14:28:26;;;;;;;1.3;1;;;;;;;;;;;;;
2020/11/04 14:30:51;;;;;;;1.8;0.9;;;;;;;;;;;;;
2020/11/04 14:33:18;;;;;;;1.2;0.8;;;;;;;;;;;;;
2020/11/04 14:35:43;;;;;;;1.4;0.7;;;;;;;;;;;;;
2020/11/04 14:38:09;;;;;;;3;1.2;;;;;;;;;;;;;
2020/11/04 14:40:34;;;;;;;1.5;0.9;;;;;;;;;;;;;
2020/11/04 14:42:59;;;;;;;1;0.8;;;;;;;;;;;;;
2020/11/04 14:45:24;;;;;;;0.8;0.6;;;;;;;;;;;;;
2020/11/04 14:47:49;;;;;;;0.9;0.5;;;;;;;;;;;;;
2020/11/04 14:50:14;;;;;;;2.3;0.7;;;;;;;;;;;;;
2020/11/04 14:52:39;;;;;;;1.9;1;;;;;;;;;;;;;
2020/11/04 14:55:05;;;;;;;1.1;0.8;;;;;;;;;;;;;
2020/11/04 14:57:30;;;;;;;1.2;0.9;;;;;;;;;;;;;
2020/11/04 14:59:55;;;;;;;1.1;0.9;;;;;;;;;;;;;
2020/11/04 15:02:20;;;;;;;1.7;1.1;;;;;;;;;;;;;
2020/11/04 15:04:46;;;;;;;2;1.1;;;;;;;;;;;;;
2020/11/04 15:07:12;;;;;;;3.1;1.1;;;;;;;;;;;;;
2020/11/04 15:09:37;;;;;;;1.3;1;;;;;;;;;;;;;
2020/11/04 15:12:03;;;;;;;1;0.7;;;;;;;;;;;;;
2020/11/04 15:14:28;;;;;;;2.6;1.1;;;;;;;;;;;;;
2020/11/04 15:16:55;;;;;;;3;1.1;;;;;;;;;;;;;
2020/11/04 15:19:20;;;;;;;1.2;0.8;;;;;;;;;;;;;
2020/11/04 15:21:47;;;;;;;1.3;0.8;;;;;;;;;;;;;
2020/11/04 15:24:12;;;;;;;1.6;1;;;;;;;;;;;;;
2020/11/04 15:26:38;;;;;;;1.3;1;;;;;;;;;;;;;
2020/11/04 15:29:03;;;;;;;1.2;0.7;;;;;;;;;;;;;
2020/11/04 15:31:28;;;;;;;1;0.7;;;;;;;;;;;;;
2020/11/04 15:33:54;;;;;;;0.8;0.7;;;;;;;;;;;;;
2020/11/04 15:36:19;;;;;;;1.1;0.7;;;;;;;;;;;;;
2020/11/04 15:38:44;;;;;;;0.8;0.6;;;;;;;;;;;;;
2020/11/04 15:41:09;;;;;;;1;0.8;;;;;;;;;;;;;
2020/11/04 15:43:36;;;;;;;1.2;0.7;;;;;;;;;;;;;
2020/11/04 15:46:01;;;;;;;1.1;0.8;;;;;;;;;;;;;
2020/11/04 15:48:26;;;;;;;1.4;0.8;;;;;;;;;;;;;
2020/11/04 15:50:51;;;;;;;0.9;0.7;;;;;;;;;;;;;
2020/11/04 15:53:16;;;;;;;1.6;0.9;;;;;;;;;;;;;
2020/11/04 15:55:43;;;;;;;2.5;1;;;;;;;;;;;;;
2020/11/04 15:58:11;;;;;;;1.4;0.8;;;;;;;;;;;;;
2020/11/04 16:00:34;;;;;;;2.2;1;;;;;;;;;;;;;
2020/11/04 16:02:59;;;;;;;3.3;1;;;;;;;;;;;;;
2020/11/04 16:05:28;;;;;;;0.9;0.8;;;;;;;;;;;;;
2020/11/04 16:07:53;;;;;;;2.2;0.8;;;;;;;;;;;;;
2020/11/04 16:10:18;;;;;;;2.4;1.3;;;;;;;;;;;;;
2020/11/04 16:12:43;;;;;;;4.1;1.1;;;;;;;;;;;;;
2020/11/04 16:15:08;;;;;;;1.3;1.1;;;;;;;;;;;;;
2020/11/04 16:17:33;;;;;;;1.1;0.9;;;;;;;;;;;;;
2020/11/04 16:19:58;;;;;;;2.1;1.4;;;;;;;;;;;;;
2020/11/04 16:22:24;;;;;;;2.7;1.2;;;;;;;;;;;;;
2020/11/04 16:24:50;;;;;;;3;1.4;;;;;;;;;;;;;
2020/11/04 16:27:15;;;;;;;2.3;1.3;;;;;;;;;;;;;
2020/11/04 16:29:40;;;;;;;1.4;1;;;;;;;;;;;;;
2020/11/04 16:32:05;;;;;;;5;1.6;;;;;;;;;;;;;
2020/11/04 16:34:30;;;;;;;1.9;1.1;;;;;;;;;;;;;
2020/11/04 16:36:55;;;;;;;1.4;1.2;;;;;;;;;;;;;
2020/11/04 16:39:20;;;;;;;1.7;1.3;;;;;;;;;;;;;
2020/11/04 16:41:46;;;;;;;2;1.3;;;;;;;;;;;;;
2020/11/04 16:44:11;;;;;;;1.1;1;;;;;;;;;;;;;
2020/11/04 16:46:36;;;;;;;3.5;1.7;;;;;;;;;;;;;
2020/11/04 16:49:05;;;;;;;4.3;1.3;;;;;;;;;;;;;
2020/11/04 16:51:30;;;;;;;1.4;1.1;;;;;;;;;;;;;
2020/11/04 16:53:55;;;;;;;1.4;1.2;;;;;;;;;;;;;
2020/11/04 16:56:21;;;;;;;5.3;1.5;;;;;;;;;;;;;
2020/11/04 16:58:46;;;;;;;7.4;1.8;;;;;;;;;;;;;
2020/11/04 17:01:11;;;;;;;2.3;1.3;;;;;;;;;;;;;
2020/11/04 17:03:37;;;;;;;1.7;1.3;;;;;;;;;;;;;
2020/11/04 17:06:02;;;;;;;2.5;1.4;;;;;;;;;;;;;
2020/11/04 17:08:27;;;;;;;1.4;1.3;;;;;;;;;;;;;
2020/11/04 17:10:54;;;;;;;1.8;1.2;;;;;;;;;;;;;
2020/11/04 17:13:19;;;;;;;6.7;1.5;;;;;;;;;;;;;
2020/11/04 17:15:44;;;;;;;1.3;1.1;;;;;;;;;;;;;
2020/11/04 17:18:09;;;;;;;2.1;1.5;;;;;;;;;;;;;
2020/11/04 17:20:35;;;;;;;2;1.4;;;;;;;;;;;;;
2020/11/04 17:23:00;;;;;;;3.4;1.5;;;;;;;;;;;;;
2020/11/04 17:25:26;;;;;;;2.4;1.5;;;;;;;;;;;;;
2020/11/04 17:27:51;;;;;;;3.4;1.8;;;;;;;;;;;;;
2020/11/04 17:30:20;;;;;;;2.1;1.8;;;;;;;;;;;;;
2020/11/04 17:32:48;;;;;;;2.2;1.6;;;;;;;;;;;;;
2020/11/04 17:35:13;;;;;;;2.6;1.8;;;;;;;;;;;;;
2020/11/04 17:37:46;;;;;;;2.1;1.5;;;;;;;;;;;;;
2020/11/04 17:40:11;;;;;;;4.8;1.5;;;;;;;;;;;;;
2020/11/04 17:42:38;;;;;;;3;1.6;;;;;;;;;;;;;
2020/11/04 17:45:03;;;;;;;3.4;2.1;;;;;;;;;;;;;
2020/11/04 17:47:28;;;;;;;5.7;3.4;;;;;;;;;;;;;
2020/11/04 17:49:58;;;;;;;5.9;3.2;;;;;;;;;;;;;
2020/11/04 17:52:25;;;;;;;3.4;2.3;;;;;;;;;;;;;
2020/11/04 17:54:52;;;;;;;4.4;2.1;;;;;;;;;;;;;
2020/11/04 17:57:17;;;;;;;3.6;2.1;;;;;;;;;;;;;
2020/11/04 17:59:42;;;;;;;7.2;2.1;;;;;;;;;;;;;
2020/11/04 18:02:07;;;;;;;2.1;1.5;;;;;;;;;;;;;
2020/11/04 18:04:34;;;;;;;2.6;1.5;;;;;;;;;;;;;
2020/11/04 18:07:04;;;;;;;1.8;1.5;;;;;;;;;;;;;
2020/11/04 18:09:24;;;;;;;3.2;1.6;;;;;;;;;;;;;
2020/11/04 18:11:49;;;;;;;2.1;1.3;;;;;;;;;;;;;
2020/11/04 18:14:15;;;;;;;3.4;1.7;;;;;;;;;;;;;
2020/11/04 18:16:40;;;;;;;4.7;1.5;;;;;;;;;;;;;
2020/11/04 18:19:05;;;;;;;2.1;1.7;;;;;;;;;;;;;
2020/11/04 18:21:30;;;;;;;3.8;1.9;;;;;;;;;;;;;
2020/11/04 18:23:55;;;;;;;2.3;1.9;;;;;;;;;;;;;
2020/11/04 18:26:20;;;;;;;1.9;1.4;;;;;;;;;;;;;
2020/11/04 18:28:45;;;;;;;2.8;2.2;;;;;;;;;;;;;
2020/11/04 18:31:12;;;;;;;3.5;2.1;;;;;;;;;;;;;
2020/11/04 18:33:37;;;;;;;3.3;2.2;;;;;;;;;;;;;
2020/11/04 18:36:03;;;;;;;3.9;2.5;;;;;;;;;;;;;
2020/11/04 18:38:29;;;;;;;5.2;3.1;;;;;;;;;;;;;
2020/11/04 18:40:54;;;;;;;2.6;2.3;;;;;;;;;;;;;
2020/11/04 18:43:19;;;;;;;3.2;2.4;;;;;;;;;;;;;
2020/11/04 18:45:45;;;;;;;10.4;3.7;;;;;;;;;;;;;
2020/11/04 18:48:10;;;;;;;5.5;3;;;;;;;;;;;;;
2020/11/04 18:50:35;;;;;;;5.8;3.1;;;;;;;;;;;;;
2020/11/04 18:53:01;;;;;;;3.6;2.3;;;;;;;;;;;;;
2020/11/04 18:55:26;;;;;;;6.6;2.6;;;;;;;;;;;;;
2020/11/04 18:57:51;;;;;;;3.4;2.6;;;;;;;;;;;;;
2020/11/04 19:00:16;;;;;;;5.9;2.8;;;;;;;;;;;;;
2020/11/04 19:02:41;;;;;;;2.8;2.2;;;;;;;;;;;;;
2020/11/04 19:05:06;;;;;;;3.7;2.4;;;;;;;;;;;;;
2020/11/04 19:07:31;;;;;;;3.3;2.3;;;;;;;;;;;;;
2020/11/04 19:09:57;;;;;;;9;2.3;;;;;;;;;;;;;
2020/11/04 19:12:22;;;;;;;4;2.5;;;;;;;;;;;;;
2020/11/04 19:14:47;;;;;;;4.8;3.1;;;;;;;;;;;;;
2020/11/04 19:17:12;;;;;;;2.2;2;;;;;;;;;;;;;
2020/11/04 19:19:37;;;;;;;3.5;2.5;;;;;;;;;;;;;
2020/11/04 19:22:02;;;;;;;2.8;2.1;;;;;;;;;;;;;
2020/11/04 19:24:27;;;;;;;2.5;1.8;;;;;;;;;;;;;
2020/11/04 19:26:52;;;;;;;2.9;2.1;;;;;;;;;;;;;
2020/11/04 19:29:17;;;;;;;7.6;2.7;;;;;;;;;;;;;
2020/11/04 19:31:42;;;;;;;3.5;2.4;;;;;;;;;;;;;
2020/11/04 19:34:08;;;;;;;3.3;2.3;;;;;;;;;;;;;
2020/11/04 19:36:34;;;;;;;7.5;2.5;;;;;;;;;;;;;
2020/11/04 19:39:00;;;;;;;2.6;2.1;;;;;;;;;;;;;
2020/11/04 19:41:25;;;;;;;3.5;2;;;;;;;;;;;;;
2020/11/04 19:43:50;;;;;;;3.7;2.4;;;;;;;;;;;;;
2020/11/04 19:46:16;;;;;;;3.5;2.2;;;;;;;;;;;;;
2020/11/04 19:48:42;;;;;;;4.2;2.1;;;;;;;;;;;;;
2020/11/04 19:51:07;;;;;;;2.8;2.1;;;;;;;;;;;;;
2020/11/04 19:53:32;;;;;;;3.7;2.4;;;;;;;;;;;;;
2020/11/04 19:55:57;;;;;;;3.3;2.5;;;;;;;;;;;;;
2020/11/04 19:58:22;;;;;;;3.2;2.5;;;;;;;;;;;;;